createdAt,value
2019-02-11T00:00:40.602Z,5.93
2019-02-11T00:03:11.124Z,6.00
2019-02-11T00:05:40.079Z,6.27
2019-02-11T00:08:08.818Z,6.50
2019-02-11T00:10:38.724Z,6.40
2019-02-11T00:13:10.639Z,5.77
2019-02-11T00:15:38.198Z,6.23
2019-02-11T00:18:07.028Z,5.87
2019-02-11T00:20:35.880Z,5.27
2019-02-11T00:23:04.280Z,6.80
2019-02-11T00:25:32.927Z,5.87
2019-02-11T00:28:01.631Z,5.97
2019-02-11T00:30:30.318Z,5.70
2019-02-11T00:32:58.929Z,6.03
2019-02-11T00:35:29.170Z,5.63
2019-02-11T00:37:57.716Z,5.57
2019-02-11T00:40:26.314Z,5.20
2019-02-11T00:42:55.203Z,5.00
2019-02-11T00:45:24.331Z,4.83
2019-02-11T00:47:53.287Z,5.00
2019-02-11T00:50:22.304Z,6.03
2019-02-11T00:52:51.255Z,5.70
2019-02-11T00:55:19.771Z,4.80
2019-02-11T00:57:48.419Z,5.73
2019-02-11T01:00:17.036Z,6.30
2019-02-11T01:02:46.042Z,5.97
2019-02-11T01:05:14.992Z,6.20
2019-02-11T01:07:43.674Z,5.67
2019-02-11T01:10:12.184Z,4.80
2019-02-11T01:12:46.644Z,5.90
2019-02-11T01:15:15.309Z,6.20
2019-02-11T01:17:44.075Z,5.00
2019-02-11T01:20:12.680Z,5.13
2019-02-11T01:22:41.635Z,5.97
2019-02-11T01:25:10.235Z,5.20
2019-02-11T01:27:38.659Z,5.73
2019-02-11T01:30:08.633Z,6.03
2019-02-11T01:32:36.967Z,5.47
2019-02-11T01:35:05.987Z,6.10
2019-02-11T01:37:34.708Z,5.00
2019-02-11T01:40:03.767Z,5.60
2019-02-11T01:42:32.393Z,5.50
2019-02-11T01:45:01.238Z,5.37
2019-02-11T01:47:29.691Z,5.17
2019-02-11T01:49:58.405Z,6.20
2019-02-11T01:52:27.130Z,5.37
2019-02-11T01:54:56.086Z,5.30
2019-02-11T01:57:24.899Z,4.97
2019-02-11T01:59:53.392Z,5.30
2019-02-11T02:02:22.135Z,5.97
2019-02-11T02:04:50.650Z,5.47
2019-02-11T02:07:19.263Z,5.07
2019-02-11T02:09:47.823Z,6.17
2019-02-11T02:12:16.616Z,7.28
2019-02-11T02:14:45.464Z,6.87
2019-02-11T02:17:14.070Z,5.70
2019-02-11T02:19:44.085Z,5.50
2019-02-11T02:22:12.896Z,5.90
2019-02-11T02:24:41.526Z,6.00
2019-02-11T02:27:10.275Z,6.20
2019-02-11T02:29:39.039Z,5.83
2019-02-11T02:32:08.591Z,5.47
2019-02-11T02:34:37.428Z,6.50
2019-02-11T02:37:05.855Z,6.00
2019-02-11T02:39:34.617Z,5.90
2019-02-11T02:42:03.312Z,6.53
2019-02-11T02:44:32.787Z,6.97
2019-02-11T02:47:01.314Z,6.23
2019-02-11T02:49:29.915Z,6.83
2019-02-11T02:51:58.379Z,7.10
2019-02-11T02:54:27.098Z,6.33
2019-02-11T02:56:55.703Z,7.43
2019-02-11T02:59:24.671Z,6.93
2019-02-11T03:01:53.323Z,6.53
2019-02-11T03:04:21.717Z,6.83
2019-02-11T03:06:50.177Z,7.00
2019-02-11T03:09:18.944Z,8.00
2019-02-11T03:11:47.795Z,7.83
2019-02-11T03:14:16.185Z,7.80
2019-02-11T03:16:44.906Z,6.83
2019-02-11T03:19:13.899Z,7.77
2019-02-11T03:21:42.895Z,6.87
2019-02-11T03:24:11.576Z,7.20
2019-02-11T03:26:40.271Z,6.87
2019-02-11T03:29:09.260Z,6.13
2019-02-11T03:31:38.560Z,6.07
2019-02-11T03:34:07.859Z,6.83
2019-02-11T03:36:36.411Z,7.17
2019-02-11T03:39:05.460Z,7.47
2019-02-11T03:41:34.120Z,7.30
2019-02-11T03:44:02.914Z,7.60
2019-02-11T03:46:31.560Z,7.40
2019-02-11T03:49:00.285Z,8.13
2019-02-11T03:51:30.629Z,7.37
2019-02-11T03:53:59.115Z,8.87
2019-02-11T03:56:27.511Z,6.57
2019-02-11T03:58:56.082Z,8.13
2019-02-11T04:01:24.810Z,9.30
2019-02-11T04:03:53.325Z,7.10
2019-02-11T04:06:21.942Z,7.27
2019-02-11T04:08:50.639Z,6.90
2019-02-11T04:11:18.995Z,6.77
2019-02-11T04:13:47.690Z,7.43
2019-02-11T04:16:16.144Z,7.33
2019-02-11T04:18:44.831Z,6.73
2019-02-11T04:21:13.531Z,8.07
2019-02-11T04:23:42.642Z,6.83
2019-02-11T04:26:11.234Z,7.90
2019-02-11T04:28:40.127Z,7.07
2019-02-11T04:31:08.858Z,7.40
2019-02-11T04:33:37.803Z,7.63
2019-02-11T04:36:06.492Z,7.97
2019-02-11T04:38:35.484Z,7.00
2019-02-11T04:41:04.204Z,7.43
2019-02-11T04:43:33.209Z,6.60
2019-02-11T04:46:01.960Z,7.70
2019-02-11T04:48:30.519Z,8.77
2019-02-11T04:50:59.267Z,7.50
2019-02-11T04:53:28.275Z,7.20
2019-02-11T04:55:56.976Z,7.30
2019-02-11T04:58:25.619Z,8.20
2019-02-11T05:00:55.511Z,7.90
2019-02-11T05:03:23.861Z,7.63
2019-02-11T05:05:52.769Z,6.93
2019-02-11T05:08:21.383Z,6.17
2019-02-11T05:10:50.011Z,6.07
2019-02-11T05:13:18.759Z,6.03
2019-02-11T05:15:47.296Z,6.07
2019-02-11T05:18:16.982Z,6.50
2019-02-11T05:20:46.172Z,7.70
2019-02-11T05:23:14.591Z,6.77
2019-02-11T05:25:43.011Z,6.17
2019-02-11T05:28:11.857Z,7.42
2019-02-11T05:30:40.399Z,5.80
2019-02-11T05:33:09.022Z,6.00
2019-02-11T05:35:38.673Z,5.90
2019-02-11T05:38:07.280Z,5.97
2019-02-11T05:40:35.676Z,6.03
2019-02-11T05:43:04.387Z,6.60
2019-02-11T05:45:32.805Z,6.20
2019-02-11T05:48:01.414Z,6.10
2019-02-11T05:50:29.892Z,6.10
2019-02-11T05:52:58.420Z,5.87
2019-02-11T05:55:28.172Z,5.37
2019-02-11T05:57:56.836Z,4.73
2019-02-11T06:00:25.805Z,5.70
2019-02-11T06:02:54.716Z,4.80
2019-02-11T06:05:23.835Z,4.83
2019-02-11T06:07:52.475Z,3.73
2019-02-11T06:10:20.827Z,4.20
2019-02-11T06:12:49.447Z,5.10
2019-02-11T06:15:18.139Z,4.07
2019-02-11T06:17:46.575Z,4.57
2019-02-11T06:20:15.290Z,4.17
2019-02-11T06:22:43.977Z,4.80
2019-02-11T06:25:12.466Z,4.27
2019-02-11T06:27:41.347Z,4.13
2019-02-11T06:30:10.691Z,3.93
2019-02-11T06:32:39.482Z,5.03
2019-02-11T06:35:08.357Z,5.20
2019-02-11T06:37:37.083Z,4.90
2019-02-11T06:40:06.249Z,5.13
2019-02-11T06:42:34.746Z,5.80
2019-02-11T06:45:03.606Z,4.70
2019-02-11T06:47:32.050Z,4.67
2019-02-11T06:50:00.643Z,4.90
2019-02-11T06:52:29.211Z,5.70
2019-02-11T06:54:58.749Z,4.67
2019-02-11T06:57:27.790Z,4.53
2019-02-11T06:59:56.763Z,4.57
2019-02-11T07:02:25.466Z,4.83
2019-02-11T07:04:54.139Z,4.47
2019-02-11T07:07:22.513Z,4.77
2019-02-11T07:09:51.179Z,5.23
2019-02-11T07:12:19.894Z,4.87
2019-02-11T07:14:48.587Z,6.13
2019-02-11T07:17:17.519Z,4.27
2019-02-11T07:19:46.258Z,4.73
2019-02-11T07:22:15.039Z,5.30
2019-02-11T07:24:44.602Z,6.57
2019-02-11T07:27:13.087Z,5.63
2019-02-11T07:29:41.614Z,4.83
2019-02-11T07:32:10.383Z,4.77
2019-02-11T07:34:38.995Z,5.30
2019-02-11T07:37:07.973Z,5.20
2019-02-11T07:39:36.602Z,4.63
2019-02-11T07:42:23.163Z,5.17
2019-02-11T07:44:57.434Z,5.97
2019-02-11T07:47:26.327Z,5.73
2019-02-11T07:49:54.998Z,5.17
2019-02-11T07:52:26.878Z,5.57
2019-02-11T07:54:53.984Z,5.27
2019-02-11T07:57:22.815Z,5.37
2019-02-11T07:59:51.915Z,4.50
2019-02-11T08:02:20.591Z,6.58
2019-02-11T08:04:49.629Z,4.67
2019-02-11T08:07:19.239Z,5.73
2019-02-11T08:09:49.152Z,5.60
2019-02-11T08:12:17.836Z,4.70
2019-02-11T08:14:46.830Z,4.57
2019-02-11T08:17:15.520Z,5.00
2019-02-11T08:19:44.387Z,5.80
2019-02-11T08:22:12.703Z,7.25
2019-02-11T08:24:41.575Z,5.93
2019-02-11T08:27:10.571Z,7.07
2019-02-11T08:29:39.257Z,6.57
2019-02-11T08:32:07.855Z,6.10
2019-02-11T08:34:37.775Z,6.40
2019-02-11T08:37:06.180Z,5.83
2019-02-11T08:39:34.696Z,6.27
2019-02-11T08:42:03.278Z,4.77
2019-02-11T08:44:33.562Z,6.27
2019-02-11T08:47:02.510Z,5.73
2019-02-11T08:49:31.380Z,6.00
2019-02-11T08:52:00.188Z,5.60
2019-02-11T08:54:28.479Z,7.27
2019-02-11T08:56:57.536Z,5.80
2019-02-11T08:59:25.959Z,7.03
2019-02-11T09:01:54.787Z,5.30
2019-02-11T09:04:23.272Z,6.47
2019-02-11T09:06:53.295Z,5.57
2019-02-11T09:09:22.171Z,6.00
2019-02-11T09:11:50.527Z,7.27
2019-02-11T09:14:19.136Z,7.23
2019-02-11T09:16:47.924Z,4.93
2019-02-11T09:19:16.232Z,7.13
2019-02-11T09:21:44.715Z,6.07
2019-02-11T09:24:13.733Z,5.40
2019-02-11T09:26:42.343Z,7.33
2019-02-11T09:29:11.396Z,5.40
2019-02-11T09:31:40.389Z,5.73
2019-02-11T09:34:09.384Z,6.50
2019-02-11T09:36:38.069Z,5.97
2019-02-11T09:39:07.903Z,7.43
2019-02-11T09:41:36.227Z,7.53
2019-02-11T09:44:04.772Z,5.13
2019-02-11T09:46:33.531Z,6.23
2019-02-11T09:49:02.370Z,6.70
2019-02-11T09:51:31.413Z,5.50
2019-02-11T09:53:59.827Z,7.03
2019-02-11T09:56:28.577Z,6.17
2019-02-11T09:58:57.151Z,7.78
2019-02-11T10:01:25.710Z,6.73
2019-02-11T10:03:54.391Z,6.53
2019-02-11T10:06:23.176Z,7.23
2019-02-11T10:08:51.755Z,6.23
2019-02-11T10:11:20.184Z,7.10
2019-02-11T10:13:48.844Z,7.40
2019-02-11T10:16:19.463Z,7.13
2019-02-11T10:18:48.035Z,6.90
2019-02-11T10:21:17.407Z,5.67
2019-02-11T10:23:45.791Z,4.43
2019-02-11T10:26:14.253Z,3.33
2019-02-11T10:28:43.831Z,5.37
2019-02-11T10:31:12.446Z,5.27
2019-02-11T10:33:40.836Z,4.40
2019-02-11T10:36:09.302Z,4.40
2019-02-11T10:38:37.872Z,4.17
2019-02-11T10:41:07.335Z,4.80
2019-02-11T10:43:36.643Z,2.67
2019-02-11T10:46:05.195Z,4.60
2019-02-11T10:48:33.935Z,3.57
2019-02-11T10:51:06.711Z,3.90
2019-02-11T10:53:35.574Z,3.10
2019-02-11T10:56:04.041Z,4.92
2019-02-11T10:58:32.667Z,4.00
2019-02-11T11:01:01.372Z,3.93
2019-02-11T11:03:30.023Z,3.93
2019-02-11T11:05:59.351Z,5.07
2019-02-11T11:08:27.966Z,3.83
2019-02-11T11:10:56.605Z,3.77
2019-02-11T11:13:25.266Z,4.23
2019-02-11T11:15:54.055Z,4.72
2019-02-11T11:18:22.495Z,3.87
2019-02-11T11:20:51.476Z,2.87
2019-02-11T11:23:20.215Z,3.33
2019-02-11T11:25:49.111Z,2.83
2019-02-11T11:28:17.654Z,2.40
2019-02-11T11:30:46.071Z,2.17
2019-02-11T11:33:14.593Z,2.27
2019-02-11T11:35:43.247Z,2.23
2019-02-11T11:38:11.586Z,3.00
2019-02-11T11:40:40.535Z,2.60
2019-02-11T11:43:08.959Z,2.47
2019-02-11T11:45:37.867Z,3.13
2019-02-11T11:48:06.423Z,2.17
2019-02-11T11:50:35.394Z,2.50
2019-02-11T11:53:04.055Z,3.20
2019-02-11T11:55:32.416Z,2.60
2019-02-11T11:58:00.770Z,3.10
2019-02-11T12:00:29.558Z,2.90
2019-02-11T12:03:02.676Z,3.60
2019-02-11T12:05:28.607Z,2.50
2019-02-11T12:07:57.445Z,3.10
2019-02-11T12:10:26.578Z,2.47
2019-02-11T12:12:55.477Z,2.50
2019-02-11T12:15:24.389Z,2.73
2019-02-11T12:17:52.987Z,2.33
2019-02-11T12:20:21.398Z,2.57
2019-02-11T12:22:50.346Z,2.80
2019-02-11T12:25:19.117Z,3.17
2019-02-11T12:27:47.839Z,3.37
2019-02-11T12:30:21.508Z,2.90
2019-02-11T12:32:54.819Z,2.50
2019-02-11T12:35:28.603Z,3.37
2019-02-11T12:37:57.637Z,4.20
2019-02-11T12:40:26.575Z,3.70
2019-02-11T12:42:55.007Z,4.03
2019-02-11T12:45:25.000Z,3.20
2019-02-11T12:47:55.152Z,3.27
2019-02-11T12:50:24.015Z,2.23
2019-02-11T12:52:52.422Z,3.20
2019-02-11T12:55:21.542Z,3.23
2019-02-11T12:57:50.730Z,2.20
2019-02-11T13:00:20.369Z,3.07
2019-02-11T13:02:49.094Z,3.30
2019-02-11T13:05:21.859Z,3.17
2019-02-11T13:07:49.554Z,3.27
2019-02-11T13:10:19.655Z,2.80
2019-02-11T13:12:48.324Z,3.90
2019-02-11T13:15:41.820Z,2.07
2019-02-11T13:17:47.725Z,1.93
2019-02-11T13:20:16.382Z,2.10
2019-02-11T13:22:45.346Z,2.27
2019-02-11T13:25:14.100Z,1.93
2019-02-11T13:27:43.961Z,1.97
2019-02-11T13:30:13.804Z,2.40
2019-02-11T13:32:42.474Z,2.20
2019-02-11T13:35:10.979Z,1.60
2019-02-11T13:37:39.870Z,1.70
2019-02-11T13:40:09.119Z,2.73
2019-02-11T13:42:38.166Z,1.80
2019-02-11T13:45:09.405Z,2.23
2019-02-11T13:47:51.997Z,1.87
2019-02-11T13:50:09.081Z,2.10
2019-02-11T13:52:37.796Z,2.87
2019-02-11T13:55:06.541Z,3.37
2019-02-11T13:57:35.575Z,2.90
2019-02-11T14:00:08.902Z,2.77
2019-02-11T14:02:45.575Z,2.60
2019-02-11T14:05:14.841Z,3.13
2019-02-11T14:07:43.599Z,2.97
2019-02-11T14:10:13.536Z,2.40
2019-02-11T14:12:43.743Z,2.20
2019-02-11T14:15:12.921Z,2.27
2019-02-11T14:17:41.754Z,1.40
2019-02-11T14:20:17.359Z,3.43
2019-02-11T14:22:45.915Z,0.97
2019-02-11T14:25:16.072Z,1.57
2019-02-11T14:27:45.015Z,5.33
2019-02-11T14:30:14.476Z,1.23
2019-02-11T14:32:43.838Z,1.97
2019-02-11T14:35:12.676Z,1.40
2019-02-11T14:37:41.727Z,1.73
2019-02-11T14:40:12.511Z,1.67
2019-02-11T14:42:41.383Z,2.70
2019-02-11T14:45:13.058Z,2.40
2019-02-11T14:47:44.363Z,2.50
2019-02-11T14:50:13.581Z,3.37
2019-02-11T14:52:42.700Z,2.13
2019-02-11T14:55:12.300Z,2.23
2019-02-11T14:57:41.257Z,1.30
2019-02-11T15:00:15.487Z,1.70
2019-02-11T15:02:44.475Z,1.30
2019-02-11T15:05:14.727Z,1.53
2019-02-11T15:07:43.863Z,2.50
2019-02-11T15:10:13.029Z,3.03
2019-02-11T15:12:44.216Z,2.40
2019-02-11T15:15:13.069Z,3.03
2019-02-11T15:17:42.045Z,2.83
2019-02-11T15:20:12.462Z,3.40
2019-02-11T15:22:40.941Z,2.27
2019-02-11T15:25:14.440Z,2.70
2019-02-11T15:27:44.389Z,4.10
2019-02-11T15:30:15.291Z,2.73
2019-02-11T15:32:44.203Z,2.63
2019-02-11T15:35:13.511Z,2.27
2019-02-11T15:37:41.864Z,3.67
2019-02-11T15:40:13.223Z,2.23
2019-02-11T15:42:42.616Z,1.67
2019-02-11T15:45:13.503Z,1.90
2019-02-11T15:47:43.114Z,2.00
2019-02-11T15:50:12.560Z,1.70
2019-02-11T15:52:42.251Z,1.90
2019-02-11T15:55:13.255Z,2.57
2019-02-11T15:57:44.019Z,2.67
2019-02-11T16:00:14.951Z,3.23
2019-02-11T16:02:43.803Z,3.57
2019-02-11T16:05:16.544Z,3.57
2019-02-11T16:07:46.621Z,6.03
2019-02-11T16:10:17.479Z,4.20
2019-02-11T16:12:46.305Z,5.13
2019-02-11T16:15:15.012Z,4.77
2019-02-11T16:17:43.669Z,5.37
2019-02-11T16:20:14.682Z,5.33
2019-02-11T16:22:46.588Z,5.57
2019-02-11T16:25:18.231Z,10.47
2019-02-11T16:27:47.500Z,8.33
2019-02-11T16:30:17.968Z,9.70
2019-02-11T16:32:46.778Z,8.13
2019-02-11T16:35:15.733Z,9.60
2019-02-11T16:37:46.088Z,8.40
2019-02-11T16:40:18.863Z,6.10
2019-02-11T16:42:47.423Z,8.20
2019-02-11T16:45:16.072Z,7.63
2019-02-11T16:47:45.780Z,6.23
2019-02-11T16:50:14.715Z,7.27
2019-02-11T16:52:43.852Z,6.20
2019-02-11T16:55:13.485Z,6.67
2019-02-11T16:57:42.314Z,6.67
2019-02-11T17:00:13.506Z,6.17
2019-02-11T17:02:42.399Z,5.17
2019-02-11T17:05:12.243Z,5.33
2019-02-11T17:07:42.236Z,5.80
2019-02-11T17:10:12.015Z,5.27
2019-02-11T17:12:40.572Z,6.00
2019-02-11T17:15:11.375Z,5.20
2019-02-11T17:17:39.743Z,5.93
2019-02-11T17:20:09.588Z,7.13
2019-02-11T17:22:38.066Z,6.23
2019-02-11T17:25:07.673Z,5.30
2019-02-11T17:27:36.328Z,5.10
2019-02-11T17:30:06.596Z,8.37
2019-02-11T17:32:35.015Z,10.27
2019-02-11T17:35:04.304Z,10.23
2019-02-11T17:37:32.978Z,4.70
2019-02-11T17:40:01.863Z,6.43
2019-02-11T17:42:30.427Z,6.03
2019-02-11T17:44:58.866Z,7.77
2019-02-11T17:47:27.831Z,5.13
2019-02-11T17:49:56.351Z,4.50
2019-02-11T17:52:25.186Z,5.07
2019-02-11T17:54:53.818Z,4.50
2019-02-11T17:57:22.317Z,6.23
2019-02-11T17:59:50.791Z,5.57
2019-02-11T18:02:19.246Z,6.60
2019-02-11T18:04:48.048Z,7.20
2019-02-11T18:07:16.452Z,8.77
2019-02-11T18:09:44.923Z,9.47
2019-02-11T18:12:15.000Z,8.80
2019-02-11T18:14:43.801Z,8.80
2019-02-11T18:17:12.582Z,7.80
2019-02-11T18:19:41.324Z,9.10
2019-02-11T18:22:10.325Z,8.93
2019-02-11T18:24:38.679Z,9.10
2019-02-11T18:27:20.769Z,11.63
2019-02-11T18:29:49.798Z,12.30
2019-02-11T18:32:18.788Z,14.67
2019-02-11T18:34:47.710Z,13.90
2019-02-11T18:37:16.600Z,13.83
2019-02-11T18:39:45.594Z,15.00
2019-02-11T18:42:14.181Z,13.30
2019-02-11T18:44:42.748Z,14.37
2019-02-11T18:47:12.047Z,19.80
2019-02-11T18:49:42.126Z,18.70
2019-02-11T18:52:11.188Z,16.47
2019-02-11T18:54:40.039Z,15.73
2019-02-11T18:57:08.948Z,17.03
2019-02-11T18:59:38.128Z,15.27
2019-02-11T19:02:06.712Z,14.80
2019-02-11T19:04:36.160Z,16.23
2019-02-11T19:07:05.379Z,9.63
2019-02-11T19:09:34.249Z,9.50
2019-02-11T19:12:03.444Z,7.47
2019-02-11T19:14:32.026Z,7.47
2019-02-11T19:17:00.979Z,8.23
2019-02-11T19:19:30.298Z,11.43
2019-02-11T19:21:59.364Z,10.30
2019-02-11T19:24:27.856Z,13.57
2019-02-11T19:26:56.437Z,21.17
2019-02-11T19:29:25.256Z,21.53
2019-02-11T19:31:54.064Z,20.00
2019-02-11T19:34:23.160Z,7.80
2019-02-11T19:36:52.306Z,7.20
2019-02-11T19:39:21.597Z,13.60
2019-02-11T19:41:50.344Z,10.57
2019-02-11T19:44:19.147Z,8.33
2019-02-11T19:46:48.063Z,9.47
2019-02-11T19:49:16.723Z,12.20
2019-02-11T19:51:45.452Z,9.73
2019-02-11T19:54:18.921Z,9.97
2019-02-11T19:56:48.320Z,9.03
2019-02-11T19:59:16.992Z,11.53
2019-02-11T20:01:45.963Z,16.33
2019-02-11T20:04:14.997Z,17.47
2019-02-11T20:06:44.125Z,15.50
2019-02-11T20:09:13.379Z,14.20
2019-02-11T20:11:42.434Z,14.10
2019-02-11T20:14:11.456Z,15.60
2019-02-11T20:16:40.177Z,15.53
2019-02-11T20:19:09.028Z,14.77
2019-02-11T20:21:37.998Z,15.50
2019-02-11T20:24:07.661Z,17.27
2019-02-11T20:26:36.828Z,18.93
2019-02-11T20:29:05.887Z,17.13
2019-02-11T20:31:35.044Z,13.67
2019-02-11T20:34:05.017Z,15.97
2019-02-11T20:36:34.311Z,19.52
2019-02-11T20:39:04.712Z,20.03
2019-02-11T20:41:37.800Z,15.60
2019-02-11T20:44:08.978Z,18.37
2019-02-11T20:46:39.101Z,18.77
2019-02-11T20:49:07.883Z,18.77
2019-02-11T20:51:37.594Z,17.37
2019-02-11T20:54:06.963Z,18.43
2019-02-11T20:56:36.359Z,18.63
2019-02-11T20:59:05.662Z,22.03
2019-02-11T21:01:35.473Z,21.00
2019-02-11T21:04:04.573Z,20.50
2019-02-11T21:06:33.631Z,19.33
2019-02-11T21:09:04.205Z,18.77
2019-02-11T21:11:36.702Z,20.33
2019-02-11T21:14:10.707Z,23.50
2019-02-11T21:16:45.852Z,21.40
2019-02-11T21:19:15.578Z,21.73
2019-02-11T21:21:44.916Z,23.17
2019-02-11T21:24:14.087Z,23.50
2019-02-11T21:26:43.856Z,23.47
2019-02-11T21:29:12.640Z,23.43
2019-02-11T21:31:41.392Z,21.03
2019-02-11T21:34:10.604Z,22.03
2019-02-11T21:36:39.596Z,22.73
2019-02-11T21:39:09.049Z,21.67
2019-02-11T21:41:37.914Z,21.97
2019-02-11T21:44:07.195Z,21.80
2019-02-11T21:46:36.449Z,23.27
2019-02-11T21:49:05.183Z,21.77
2019-02-11T21:51:33.909Z,22.17
2019-02-11T21:54:02.628Z,22.10
2019-02-11T21:56:31.754Z,20.13
2019-02-11T21:59:00.342Z,17.73
2019-02-11T22:01:29.773Z,16.07
2019-02-11T22:03:59.023Z,12.30
2019-02-11T22:06:27.886Z,13.03
2019-02-11T22:08:56.908Z,12.20
2019-02-11T22:11:26.699Z,12.93
2019-02-11T22:13:56.019Z,12.43
2019-02-11T22:16:25.085Z,14.00
2019-02-11T22:18:54.427Z,12.77
2019-02-11T22:21:24.433Z,12.77
2019-02-11T22:23:53.518Z,11.67
2019-02-11T22:26:22.905Z,13.20
2019-02-11T22:28:51.823Z,12.80
2019-02-11T22:31:20.558Z,13.47
2019-02-11T22:33:49.232Z,13.30
2019-02-11T22:36:18.146Z,12.50
2019-02-11T22:38:46.895Z,11.47
2019-02-11T22:41:16.840Z,11.30
2019-02-11T22:43:46.101Z,10.63
2019-02-11T22:46:14.827Z,10.87
2019-02-11T22:48:44.928Z,10.07
2019-02-11T22:51:14.080Z,8.03
2019-02-11T22:53:42.976Z,7.23
2019-02-11T22:56:11.986Z,7.53
2019-02-11T22:58:40.870Z,7.97
2019-02-11T23:01:10.440Z,7.47
2019-02-11T23:03:39.191Z,8.03
2019-02-11T23:06:08.192Z,7.40
2019-02-11T23:08:42.630Z,7.77
2019-02-11T23:11:11.871Z,7.17
2019-02-11T23:13:40.844Z,7.90
2019-02-11T23:16:09.431Z,7.63
2019-02-11T23:18:38.692Z,7.90
2019-02-11T23:21:08.592Z,7.83
2019-02-11T23:23:37.443Z,7.90
2019-02-11T23:26:06.064Z,7.40
2019-02-11T23:28:35.484Z,8.30
2019-02-11T23:31:04.461Z,10.77
2019-02-11T23:33:33.459Z,8.83
2019-02-11T23:36:02.720Z,8.27
2019-02-11T23:38:31.549Z,7.73
2019-02-11T23:41:00.372Z,9.40
2019-02-11T23:43:29.288Z,8.43
2019-02-11T23:45:57.994Z,9.83
2019-02-11T23:48:26.718Z,9.53
2019-02-11T23:51:00.434Z,14.93
2019-02-11T23:53:26.252Z,9.90
2019-02-11T23:55:54.932Z,12.33
2019-02-11T23:58:23.623Z,10.93
